createdAt,value
2018-12-24T00:03:53.615Z,101221.59
2018-12-24T00:08:51.069Z,101237.97
2018-12-24T00:13:47.959Z,101249.32
2018-12-24T00:18:45.265Z,101251.51
2018-12-24T00:23:43.118Z,101266.39
2018-12-24T00:28:40.341Z,101276.92
2018-12-24T00:33:37.246Z,101278.30
2018-12-24T00:38:34.263Z,101280.55
2018-12-24T00:43:31.035Z,101305.91
2018-12-24T00:48:27.711Z,101317.88
2018-12-24T00:53:24.429Z,101337.75
2018-12-24T00:58:21.779Z,101346.44
2018-12-24T01:03:18.965Z,101360.69
2018-12-24T01:08:15.324Z,101380.95
2018-12-24T01:13:11.788Z,101393.83
2018-12-24T01:18:08.991Z,101412.38
2018-12-24T01:23:05.960Z,101423.51
2018-12-24T01:28:02.111Z,101454.34
2018-12-24T01:32:58.426Z,101468.53
2018-12-24T01:37:54.587Z,101482.58
2018-12-24T01:42:50.848Z,101496.62
2018-12-24T01:47:46.888Z,101505.94
2018-12-24T01:52:43.095Z,101519.55
2018-12-24T01:57:41.207Z,101530.12
2018-12-24T02:02:37.281Z,101537.53
2018-12-24T02:07:33.630Z,101544.51
2018-12-24T02:12:29.758Z,101559.95
2018-12-24T02:17:25.795Z,101574.44
2018-12-24T02:22:21.921Z,101585.86
2018-12-24T02:27:17.980Z,101591.12
2018-12-24T02:32:14.160Z,101591.17
2018-12-24T02:37:10.191Z,101594.72
2018-12-24T02:42:06.313Z,101605.65
2018-12-24T02:47:02.562Z,101614.82
2018-12-24T02:51:58.837Z,101615.30
2018-12-24T02:56:54.926Z,101626.22
2018-12-24T03:01:51.036Z,101640.75
2018-12-24T03:06:47.303Z,101654.84
2018-12-24T03:11:43.319Z,101663.95
2018-12-24T03:16:39.286Z,101671.42
2018-12-24T03:21:35.302Z,101677.08
2018-12-24T03:26:31.433Z,101684.10
2018-12-24T03:31:27.558Z,101691.08
2018-12-24T03:36:23.601Z,101698.50
2018-12-24T03:41:19.635Z,101705.91
2018-12-24T03:46:15.650Z,101718.59
2018-12-24T03:51:11.722Z,101725.17
2018-12-24T03:56:07.714Z,101731.33
2018-12-24T04:01:03.899Z,101735.70
2018-12-24T04:06:00.117Z,101744.97
2018-12-24T04:10:56.143Z,101755.98
2018-12-24T04:15:52.209Z,101759.19
2018-12-24T04:20:48.378Z,101774.16
2018-12-24T04:25:44.913Z,101784.77
2018-12-24T04:30:41.135Z,101801.12
2018-12-24T04:35:37.404Z,101803.84
2018-12-24T04:40:33.438Z,101803.88
2018-12-24T04:45:29.593Z,101809.19
2018-12-24T04:50:25.618Z,101818.48
2018-12-24T04:55:21.718Z,101834.28
2018-12-24T05:00:18.145Z,101841.74
2018-12-24T05:05:14.434Z,101862.28
2018-12-24T05:10:10.648Z,101860.48
2018-12-24T05:15:06.963Z,101879.27
2018-12-24T05:20:03.133Z,101895.83
2018-12-24T05:24:59.129Z,101922.48
2018-12-24T05:29:55.208Z,101936.45
2018-12-24T05:34:51.248Z,101954.48
2018-12-24T05:39:47.282Z,101965.89
2018-12-24T05:44:43.643Z,101971.55
2018-12-24T05:49:39.681Z,101977.66
2018-12-24T05:54:35.704Z,101990.02
2018-12-24T05:59:31.756Z,101994.81
2018-12-24T06:04:27.794Z,102011.53
2018-12-24T06:09:24.023Z,102026.05
2018-12-24T06:14:20.064Z,102038.34
2018-12-24T06:19:16.119Z,102048.00
2018-12-24T06:24:12.123Z,102063.36
2018-12-24T06:29:08.149Z,102067.71
2018-12-24T06:34:04.195Z,102084.89
2018-12-24T06:39:00.232Z,102103.80
2018-12-24T06:43:56.303Z,102124.02
2018-12-24T06:48:52.444Z,102134.95
2018-12-24T06:53:48.627Z,102138.00
2018-12-24T06:58:44.886Z,102144.55
2018-12-24T07:03:40.903Z,102147.58
2018-12-24T07:08:37.185Z,102154.61
2018-12-24T07:13:33.245Z,102158.16
2018-12-24T07:18:29.362Z,102166.05
2018-12-24T07:23:25.370Z,102177.94
2018-12-24T07:28:21.414Z,102190.66
2018-12-24T07:33:17.481Z,102200.72
2018-12-24T07:38:13.450Z,102205.08
2018-12-24T07:43:09.462Z,102213.86
2018-12-24T07:48:05.475Z,102226.15
2018-12-24T07:53:01.493Z,102235.80
2018-12-24T07:57:57.533Z,102240.19
2018-12-24T08:02:53.528Z,102240.59
2018-12-24T08:07:49.597Z,102241.89
2018-12-24T08:12:45.642Z,102250.63
2018-12-24T08:17:41.636Z,102256.28
2018-12-24T08:22:37.685Z,102266.34
2018-12-24T08:27:33.756Z,102268.50
2018-12-24T08:32:29.807Z,102284.72
2018-12-24T08:37:25.865Z,102296.57
2018-12-24T08:42:21.980Z,102308.83
2018-12-24T08:47:18.164Z,102319.78
2018-12-24T08:52:14.205Z,102336.37
2018-12-24T08:57:10.482Z,102355.19
2018-12-24T09:02:06.659Z,102370.06
2018-12-24T09:07:02.834Z,102372.60
2018-12-24T09:11:58.858Z,102394.06
2018-12-24T09:16:54.917Z,102397.08
2018-12-24T09:21:50.995Z,102404.92
2018-12-24T09:26:47.001Z,102420.30
2018-12-24T09:31:43.024Z,102436.14
2018-12-24T09:36:39.028Z,102445.80
2018-12-24T09:41:35.090Z,102463.25
2018-12-24T09:46:31.130Z,102468.50
2018-12-24T09:51:27.151Z,102482.52
2018-12-24T09:56:23.187Z,102499.25
2018-12-24T10:01:19.223Z,102505.48
2018-12-24T10:06:21.618Z,102511.27
2018-12-24T10:11:17.639Z,102511.81
2018-12-24T10:16:13.715Z,102521.97
2018-12-24T10:21:09.761Z,102524.11
2018-12-24T10:26:05.813Z,102531.06
2018-12-24T10:31:01.857Z,102537.65
2018-12-24T10:35:58.070Z,102547.28
2018-12-24T10:41:12.635Z,102552.97
2018-12-24T10:46:08.719Z,102549.52
2018-12-24T10:51:04.760Z,102551.80
2018-12-24T10:56:00.750Z,102554.81
2018-12-24T11:00:56.837Z,102560.08
2018-12-24T11:05:53.042Z,102558.98
2018-12-24T11:10:49.194Z,102561.78
2018-12-24T11:15:45.174Z,102564.43
2018-12-24T11:20:41.345Z,102561.73
2018-12-24T11:25:37.477Z,102559.92
2018-12-24T11:30:33.519Z,102564.07
2018-12-24T11:35:29.578Z,102558.98
2018-12-24T11:40:25.622Z,102564.80
2018-12-24T11:45:21.760Z,102567.66
2018-12-24T11:50:17.883Z,102571.92
2018-12-24T11:55:14.059Z,102586.59
2018-12-24T12:00:10.106Z,102579.64
2018-12-24T12:05:06.370Z,102575.23
2018-12-24T12:10:02.519Z,102584.88
2018-12-24T12:14:58.511Z,102597.97
2018-12-24T12:19:54.533Z,102588.26
2018-12-24T12:24:50.599Z,102590.81
2018-12-24T12:29:46.668Z,102589.46
2018-12-24T12:34:42.669Z,102585.92
2018-12-24T12:39:38.779Z,102597.36
2018-12-24T12:44:34.851Z,102610.46
2018-12-24T12:49:31.123Z,102610.02
2018-12-24T12:54:27.247Z,102619.24
2018-12-24T12:59:23.870Z,102621.47
2018-12-24T13:04:19.921Z,102633.38
2018-12-24T13:09:15.918Z,102640.70
2018-12-24T13:14:11.998Z,102648.86
2018-12-24T13:19:08.079Z,102654.29
2018-12-24T13:24:04.264Z,102662.08
2018-12-24T13:29:00.327Z,102677.98
2018-12-24T13:33:56.312Z,102678.61
2018-12-24T13:39:34.532Z,102674.83
2018-12-24T13:44:29.986Z,102670.08
2018-12-24T13:49:25.544Z,102674.16
2018-12-24T13:54:21.013Z,102680.36
2018-12-24T13:59:16.492Z,102696.59
2018-12-24T14:04:11.961Z,102701.76
2018-12-24T14:09:09.586Z,102714.45
2018-12-24T14:14:05.144Z,102729.79
2018-12-24T14:19:02.703Z,102733.57
2018-12-24T14:23:58.199Z,102744.28
2018-12-24T14:28:53.751Z,102753.22
2018-12-24T14:33:49.369Z,102754.11
2018-12-24T14:38:44.870Z,102761.17
2018-12-24T14:43:40.338Z,102763.89
2018-12-24T14:48:35.840Z,102776.70
2018-12-24T14:53:31.291Z,102785.56
2018-12-24T14:58:26.819Z,102796.17
2018-12-24T15:03:22.304Z,102810.66
2018-12-24T15:08:17.787Z,102826.06
2018-12-24T15:13:13.366Z,102838.78
2018-12-24T15:18:08.807Z,102837.06
2018-12-24T15:23:04.305Z,102850.21
2018-12-24T15:27:59.915Z,102846.72
2018-12-24T15:32:55.406Z,102841.03
2018-12-24T15:37:50.886Z,102847.55
2018-12-24T15:42:46.383Z,102852.33
2018-12-24T15:47:41.838Z,102861.08
2018-12-24T15:52:37.329Z,102869.77
2018-12-24T15:57:32.797Z,102873.70
2018-12-24T16:02:28.271Z,102872.38
2018-12-24T16:07:23.769Z,102870.63
2018-12-24T16:12:19.247Z,102864.48
2018-12-24T16:17:14.698Z,102867.52
2018-12-24T16:22:10.200Z,102866.62
2018-12-24T16:27:05.685Z,102864.39
2018-12-24T16:32:01.145Z,102866.53
2018-12-24T16:36:56.639Z,102872.57
2018-12-24T16:41:52.140Z,102873.40
2018-12-24T16:46:47.672Z,102874.20
2018-12-24T16:51:43.201Z,102875.45
2018-12-24T16:56:38.672Z,102874.11
2018-12-24T17:01:34.171Z,102892.84
2018-12-24T17:06:29.681Z,102892.41
2018-12-24T17:11:25.209Z,102887.57
2018-12-24T17:16:20.680Z,102897.54
2018-12-24T17:21:16.279Z,102887.02
2018-12-24T17:26:11.771Z,102885.64
2018-12-24T17:31:07.275Z,102885.10
2018-12-24T17:36:02.771Z,102902.49
2018-12-24T17:40:58.280Z,102910.69
2018-12-24T17:45:53.731Z,102929.34
2018-12-24T17:50:49.191Z,102933.19
2018-12-24T17:55:44.676Z,102932.65
2018-12-24T18:00:40.257Z,102927.36
2018-12-24T18:05:35.746Z,102935.16
2018-12-24T18:10:31.256Z,102945.12
2018-12-24T18:15:26.751Z,102962.00
2018-12-24T18:20:22.235Z,102966.77
2018-12-24T18:25:17.774Z,102986.36
2018-12-24T18:30:13.284Z,102984.17
2018-12-24T18:35:08.826Z,102990.25
2018-12-24T18:40:07.329Z,103001.95
2018-12-24T18:45:02.868Z,103010.12
2018-12-24T18:49:58.410Z,103021.38
2018-12-24T18:54:53.918Z,103050.45
2018-12-24T18:59:49.412Z,103046.91
2018-12-24T19:04:44.920Z,103056.40
2018-12-24T19:09:40.456Z,103053.68
2018-12-24T19:14:35.919Z,103057.50
2018-12-24T19:19:31.394Z,103088.73
2018-12-24T19:24:26.876Z,103072.98
2018-12-24T19:29:22.371Z,103058.55
2018-12-24T19:34:17.823Z,103072.38
2018-12-24T19:39:13.323Z,103080.13
2018-12-24T19:44:08.785Z,103088.75
2018-12-24T19:49:04.406Z,103096.50
2018-12-24T19:53:59.880Z,103094.66
2018-12-24T19:58:55.377Z,103091.56
2018-12-24T20:03:50.852Z,103097.20
2018-12-24T20:08:46.421Z,103105.44
2018-12-24T20:13:41.983Z,103097.55
2018-12-24T20:18:37.535Z,103098.86
2018-12-24T20:23:33.018Z,103095.78
2018-12-24T20:28:28.498Z,103098.37
2018-12-24T20:33:23.973Z,103107.47
2018-12-24T20:38:19.436Z,103104.47
2018-12-24T20:43:14.986Z,103105.88
2018-12-24T20:48:10.458Z,103108.76
2018-12-24T20:53:06.050Z,103109.88
2018-12-24T20:58:01.545Z,103113.58
2018-12-24T21:02:57.039Z,103123.30
2018-12-24T21:07:52.517Z,103132.19
2018-12-24T21:12:48.006Z,103125.45
2018-12-24T21:17:43.481Z,103110.44
2018-12-24T21:22:38.968Z,103108.81
2018-12-24T21:27:34.473Z,103120.64
2018-12-24T21:32:29.966Z,103118.55
2018-12-24T21:37:25.450Z,103112.13
2018-12-24T21:42:20.933Z,103117.45
2018-12-24T21:47:16.449Z,103105.75
2018-12-24T21:52:12.003Z,103105.86
2018-12-24T21:57:09.796Z,103105.97
2018-12-24T22:02:05.238Z,103099.54
2018-12-24T22:07:00.729Z,103099.66
2018-12-24T22:11:56.219Z,103102.78
2018-12-24T22:16:51.702Z,103112.00
2018-12-24T22:21:47.235Z,103109.90
2018-12-24T22:26:42.736Z,103102.53
2018-12-24T22:31:38.221Z,103106.07
2018-12-24T22:36:33.721Z,103103.45
2018-12-24T22:41:29.303Z,103104.78
2018-12-24T22:46:24.756Z,103107.00
2018-12-24T22:51:20.239Z,103110.50
2018-12-24T22:56:15.753Z,103122.33
2018-12-24T23:01:11.307Z,103128.95
2018-12-24T23:06:06.789Z,103128.49
2018-12-24T23:11:02.264Z,103124.59
2018-12-24T23:15:57.751Z,103122.46
2018-12-24T23:20:53.306Z,103112.44
2018-12-24T23:25:48.780Z,103114.24
2018-12-24T23:30:44.292Z,103110.34
2018-12-24T23:35:39.780Z,103108.17
2018-12-24T23:40:35.259Z,103109.93
2018-12-24T23:45:30.759Z,103101.25
2018-12-24T23:50:26.241Z,103103.88
2018-12-24T23:55:21.822Z,103103.02
